Atascocita, Texas
Current Conditions -  °F | °C
As of 3:26 AM on Sunday 23 Nov 2014 (Local Time) from KIAH Reporting Station
Broken Clouds Broken Clouds  
Wind Chill: 63°   Ceiling: 10000
Heat Index: 63°   Visibility: 10mi
Dew Point: 61°   Wind: 5mph
Humidity: 94%   Direction: 180°S
Pressure: 29.65"   Gusts: NA
Location:  29.9871°N, 95.1826°W
Report Text: KIAH 230926Z 18004KT 10SM SCT009 SCT015 BKN100 17/16 A2965 RMK AO2
Loading
Personal Weather Stations






























Interactive Weather Map New forecast layout! Learn more

10-Day Weather Forecast

Advertisements
Track Severe Weather on mobile